Time;durP1;ratioP1;P1;durP2;ratioP2;P2;SDS_P1;SDS_P2;PMS_P1;PMS_P2;Temp;Humidity;BMP_temperature;BMP_pressure;BME280_temperature;BME280_humidity;BME280_pressure;Samples;Min_cycle;Max_cycle;Signal;HPM_P1;HPM_P2
2022/09/08 00:03:05;;;;;;;3.92;1.70;;;18.40;32.93;;;;;;2671994;76;21131;-86
2022/09/08 00:06:33;;;;;;;;;;;18.32;33.45;;;;;;2673001;76;22286;-87
2022/09/08 00:10:04;;;;;;;5.22;1.80;;;18.27;33.75;;;;;;2672050;76;21133;-87
2022/09/08 00:13:32;;;;;;;;;;;18.28;34.21;;;;;;2673704;76;22157;-87
2022/09/08 00:17:02;;;;;;;5.85;1.80;;;18.30;34.59;;;;;;2671914;76;20975;-86
2022/09/08 00:20:31;;;;;;;;;;;18.34;34.36;;;;;;2672501;76;24269;-87
2022/09/08 00:23:59;;;;;;;5.03;1.45;;;18.32;35.02;;;;;;2671759;76;21480;-87
2022/09/08 00:27:28;;;;;;;;;;;18.36;35.40;;;;;;2672447;76;22219;-87
2022/09/08 00:30:56;;;;;;;4.58;1.92;;;18.38;35.95;;;;;;2671070;76;21103;-87
2022/09/08 00:34:25;;;;;;;;;;;18.40;36.27;;;;;;2672768;76;22275;-87
2022/09/08 00:37:53;;;;;;;4.47;2.10;;;18.40;37.03;;;;;;2672374;76;21008;-87
2022/09/08 00:41:22;;;;;;;;;;;18.43;37.28;;;;;;2672295;76;23280;-87
2022/09/08 00:44:53;;;;;;;3.22;2.30;;;18.49;37.45;;;;;;2671965;76;21089;-87
2022/09/08 00:48:21;;;;;;;;;;;18.54;37.37;;;;;;2672351;76;22248;-87
2022/09/08 00:51:51;;;;;;;4.08;2.40;;;18.59;37.51;;;;;;2672156;76;21114;-87
2022/09/08 00:55:20;;;;;;;;;;;18.62;37.60;;;;;;2672851;76;22180;-87
2022/09/08 00:58:49;;;;;;;5.40;2.35;;;18.64;38.01;;;;;;2672198;76;20992;-87
2022/09/08 01:02:22;;;;;;;;;;;18.63;38.00;;;;;;2672628;76;22263;-87
2022/09/08 01:05:55;;;;;;;8.18;3.02;;;18.58;38.76;;;;;;2671775;76;21179;-87
2022/09/08 01:13:10;;;;;;;4.92;2.37;;;18.61;38.62;;;;;;2671961;76;20501;-86
2022/09/08 01:16:39;;;;;;;;;;;18.67;38.28;;;;;;2672341;76;22281;-87
2022/09/08 01:20:08;;;;;;;5.90;3.00;;;18.69;38.03;;;;;;2671237;76;20991;-87
2022/09/08 01:23:36;;;;;;;;;;;18.53;39.11;;;;;;2672359;76;22138;-86
2022/09/08 01:27:13;;;;;;;5.37;2.90;;;18.52;38.95;;;;;;2671798;76;21136;-86
2022/09/08 01:30:42;;;;;;;9.00;2.60;;;18.51;38.81;;;;;;2672598;76;22331;-87
2022/09/08 01:34:11;;;;;;;;;;;18.42;38.96;;;;;;2672559;76;22270;-87
2022/09/08 01:37:42;;;;;;;4.35;2.17;;;18.40;38.93;;;;;;2672211;76;21097;-87
2022/09/08 01:41:09;;;;;;;;;;;18.32;38.59;;;;;;2672383;76;22249;-87
2022/09/08 01:44:38;;;;;;;3.50;1.80;;;18.12;38.92;;;;;;2672111;76;21018;-87
2022/09/08 01:48:09;;;;;;;;;;;18.07;38.79;;;;;;2672637;76;22716;-87
2022/09/08 01:51:38;;;;;;;4.58;1.50;;;17.82;39.04;;;;;;2671953;76;21088;-86
2022/09/08 01:55:06;;;;;;;;;;;17.69;38.93;;;;;;2672516;76;22156;-87
2022/09/08 01:58:36;;;;;;;3.40;1.25;;;17.68;39.09;;;;;;2671867;76;21591;-87
2022/09/08 02:02:04;;;;;;;;;;;17.77;38.88;;;;;;2672199;76;22454;-87
2022/09/08 02:05:34;;;;;;;5.45;1.60;;;17.81;38.52;;;;;;2671595;76;21110;-87
2022/09/08 02:09:02;;;;;;;;;;;17.85;38.14;;;;;;2672534;76;22310;-87
2022/09/08 02:12:31;;;;;;;7.05;1.60;;;17.90;37.85;;;;;;2671840;76;21145;-87
2022/09/08 02:15:59;;;;;;;;;;;17.85;37.79;;;;;;2672272;76;22210;-87
2022/09/08 02:19:28;;;;;;;3.72;1.60;;;17.82;37.96;;;;;;2671854;76;21128;-87
2022/09/08 02:22:56;;;;;;;;;;;17.81;38.06;;;;;;2672178;76;22289;-87
2022/09/08 02:26:26;;;;;;;4.12;1.77;;;17.75;38.28;;;;;;2671715;76;21164;-87
2022/09/08 02:29:54;;;;;;;;;;;17.74;38.30;;;;;;2672383;76;22322;-88
2022/09/08 02:33:23;;;;;;;1.72;1.25;;;17.67;38.41;;;;;;2671971;76;21094;-86
2022/09/08 02:36:51;;;;;;;;;;;17.61;38.42;;;;;;2672264;76;22261;-87
2022/09/08 02:40:20;;;;;;;2.92;1.70;;;17.58;38.26;;;;;;2671890;76;21150;-87
2022/09/08 02:43:48;;;;;;;;;;;17.60;37.99;;;;;;2671995;76;22730;-87
2022/09/08 02:47:18;;;;;;;1.80;1.35;;;17.64;37.87;;;;;;2671303;76;22342;-87
2022/09/08 02:50:46;;;;;;;;;;;17.65;37.66;;;;;;2672205;76;22307;-87
2022/09/08 02:54:15;;;;;;;4.58;1.15;;;17.67;37.48;;;;;;2672118;76;21107;-87
2022/09/08 02:57:43;;;;;;;;;;;17.74;37.39;;;;;;2672102;76;22273;-87
2022/09/08 03:01:12;;;;;;;4.03;1.70;;;17.77;37.17;;;;;;2671731;76;21647;-87
2022/09/08 03:04:40;;;;;;;;;;;17.80;36.95;;;;;;2672576;76;22289;-87
2022/09/08 03:08:09;;;;;;;5.97;1.40;;;17.85;36.63;;;;;;2671408;76;21115;-88
2022/09/08 03:11:38;;;;;;;;;;;17.84;36.47;;;;;;2672209;76;22280;-87
2022/09/08 03:15:07;;;;;;;2.77;1.45;;;17.88;36.63;;;;;;2671793;76;21627;-87
2022/09/08 03:18:35;;;;;;;;;;;17.85;36.24;;;;;;2672460;76;22275;-87
2022/09/08 03:22:04;;;;;;;4.53;1.60;;;17.84;36.04;;;;;;2671747;76;21635;-87
2022/09/08 03:25:32;;;;;;;;;;;17.81;35.53;;;;;;2672659;76;22364;-87
2022/09/08 03:29:01;;;;;;;4.97;1.50;;;17.85;35.88;;;;;;2671731;76;21145;-86
2022/09/08 03:32:30;;;;;;;;;;;17.87;35.65;;;;;;2672094;76;22756;-87
2022/09/08 03:36:03;;;;;;;6.92;1.60;;;17.83;35.37;;;;;;2673517;76;21022;-86
2022/09/08 03:39:31;;;;;;;;;;;17.65;35.10;;;;;;2679498;76;22293;-87
2022/09/08 03:43:00;;;;;;;2.72;1.75;;;17.52;35.33;;;;;;2673315;76;21586;-87
2022/09/08 03:46:29;;;;;;;;;;;17.46;35.57;;;;;;2672428;76;22639;-87
2022/09/08 03:49:58;;;;;;;2.52;1.40;;;17.45;36.08;;;;;;2671776;76;21489;-87
2022/09/08 03:53:26;;;;;;;;;;;17.40;36.18;;;;;;2672792;76;22315;-87
2022/09/08 03:56:55;;;;;;;2.35;1.27;;;17.47;36.30;;;;;;2672609;76;21191;-87
2022/09/08 04:00:23;;;;;;;;;;;17.56;36.28;;;;;;2672361;76;22302;-87
2022/09/08 04:03:52;;;;;;;2.60;1.40;;;17.62;36.08;;;;;;2672132;76;21112;-87
2022/09/08 04:07:20;;;;;;;;;;;17.65;36.07;;;;;;2672654;76;22293;-86
2022/09/08 04:10:49;;;;;;;9.10;1.80;;;17.63;36.02;;;;;;2672241;76;21140;-87
2022/09/08 04:14:17;;;;;;;;;;;17.64;36.22;;;;;;2672853;76;22319;-86
2022/09/08 04:17:46;;;;;;;4.90;1.90;;;17.68;36.40;;;;;;2671944;76;21093;-87
2022/09/08 04:21:15;;;;;;;;;;;17.73;36.14;;;;;;2672325;76;22294;-87
2022/09/08 04:24:43;;;;;;;7.05;1.98;;;17.58;36.00;;;;;;2671471;76;21674;-87
2022/09/08 04:28:12;;;;;;;;;;;17.50;36.64;;;;;;2672179;76;23034;-87
2022/09/08 04:31:41;;;;;;;2.37;1.40;;;17.47;37.15;;;;;;2671665;76;21120;-85
2022/09/08 04:35:09;;;;;;;;;;;17.40;37.37;;;;;;2672428;76;22321;-87
2022/09/08 04:38:38;;;;;;;4.00;1.40;;;17.38;37.58;;;;;;2671941;76;21131;-87
2022/09/08 04:42:07;;;;;;;;;;;17.31;37.84;;;;;;2672145;76;22473;-88
2022/09/08 04:45:36;;;;;;;1.98;1.42;;;17.30;38.27;;;;;;2672158;76;20998;-88
2022/09/08 04:49:04;;;;;;;;;;;17.33;38.35;;;;;;2672371;76;22201;-88
2022/09/08 04:52:33;;;;;;;2.75;1.40;;;17.38;38.10;;;;;;2672679;76;21169;-89
2022/09/08 04:56:01;;;;;;;;;;;17.34;38.32;;;;;;2672738;76;22617;-89
2022/09/08 04:59:30;;;;;;;6.20;1.35;;;17.31;38.59;;;;;;2672637;76;21433;-88
2022/09/08 05:02:58;;;;;;;;;;;17.26;38.69;;;;;;2673253;76;22538;-89
2022/09/08 05:06:28;;;;;;;7.92;1.20;;;17.32;38.60;;;;;;2672241;76;21497;-87
2022/09/08 05:09:57;;;;;;;;;;;17.35;38.39;;;;;;2672711;76;22289;-87
2022/09/08 05:13:28;;;;;;;8.90;1.32;;;17.39;38.22;;;;;;2673480;76;21111;-89
2022/09/08 05:16:57;;;;;;;;;;;17.45;38.11;;;;;;2673252;76;22257;-90
2022/09/08 05:20:25;;;;;;;1.30;1.10;;;17.45;37.96;;;;;;2672854;76;21171;-90
2022/09/08 05:23:54;;;;;;;;;;;17.46;38.02;;;;;;2672553;76;22615;-89
2022/09/08 05:27:22;;;;;;;1.67;0.88;;;17.56;37.82;;;;;;2672007;76;21639;-90
2022/09/08 05:30:51;;;;;;;;;;;17.60;37.44;;;;;;2673201;76;22325;-89
2022/09/08 05:34:19;;;;;;;3.22;0.98;;;17.61;37.44;;;;;;2672563;76;20996;-89
2022/09/08 05:37:48;;;;;;;;;;;17.67;37.50;;;;;;2673054;76;22315;-90
2022/09/08 05:41:22;;;;;;;5.70;1.20;;;17.69;37.04;;;;;;2672484;76;21147;-90
2022/09/08 05:44:53;;;;;;;2.35;1.10;;;17.69;37.12;;;;;;2673217;76;22259;-89
2022/09/08 05:48:21;;;;;;;;;;;17.65;36.94;;;;;;2672848;76;22267;-90
2022/09/08 05:51:52;;;;;;;5.33;0.80;;;17.64;36.81;;;;;;2672358;76;21048;-90
2022/09/08 05:55:20;;;;;;;;;;;17.64;36.59;;;;;;2673151;76;22287;-90
2022/09/08 05:58:53;;;;;;;4.47;0.70;;;17.63;36.52;;;;;;2672695;76;20990;-89
2022/09/08 06:02:21;;;;;;;;;;;17.60;36.45;;;;;;2673021;76;22312;-90
2022/09/08 06:05:50;;;;;;;6.50;0.78;;;17.56;35.98;;;;;;2672478;76;21119;-90
2022/09/08 06:09:18;;;;;;;;;;;17.59;35.98;;;;;;2672972;76;22666;-89
2022/09/08 06:12:47;;;;;;;1.27;0.50;;;17.53;34.70;;;;;;2672214;76;21042;-90
2022/09/08 06:16:15;;;;;;;;;;;17.55;34.74;;;;;;2672613;76;22318;-90
2022/09/08 06:19:44;;;;;;;0.65;0.42;;;17.55;33.99;;;;;;2672564;76;21700;-90
2022/09/08 06:23:13;;;;;;;;;;;17.51;33.09;;;;;;2673538;76;22279;-90
2022/09/08 06:26:46;;;;;;;0.72;0.50;;;17.55;32.70;;;;;;2672594;76;20966;-90
2022/09/08 06:30:14;;;;;;;;;;;17.70;32.28;;;;;;2672842;76;22323;-90
2022/09/08 06:33:43;;;;;;;1.20;0.30;;;17.88;31.84;;;;;;2672206;76;21099;-89
2022/09/08 06:37:11;;;;;;;;;;;17.98;31.03;;;;;;2673035;76;22646;-90
2022/09/08 06:40:45;;;;;;;0.47;0.40;;;18.07;30.32;;;;;;2672417;76;21042;-90
2022/09/08 06:44:16;;;;;;;;;;;17.97;28.55;;;;;;2672514;76;22311;-90
2022/09/08 06:47:43;;;;;;;;;;;17.88;27.76;;;;;;2672996;76;21036;-90
2022/09/08 06:51:22;;;;;;;1.17;0.37;;;17.81;26.65;;;;;;2672065;76;21532;-89
2022/09/08 06:54:52;;;;;;;1.70;0.50;;;17.83;26.46;;;;;;2672543;76;22187;-90
2022/09/08 06:58:21;;;;;;;;;;;17.79;25.48;;;;;;2673174;76;22321;-88
2022/09/08 07:01:52;;;;;;;0.20;0.20;;;17.70;24.89;;;;;;2672434;76;21025;-91
2022/09/08 07:05:21;;;;;;;;;;;17.63;25.16;;;;;;2672450;76;22196;-90
2022/09/08 07:09:03;;;;;;;0.85;0.20;;;17.55;24.81;;;;;;2672159;76;20992;-90
2022/09/08 07:12:46;;;;;;;3.30;0.47;;;17.49;25.62;;;;;;2673137;76;22368;-90
2022/09/08 07:16:23;;;;;;;0.30;0.30;;;17.43;26.07;;;;;;2673035;76;22278;-90
2022/09/08 07:19:53;;;;;;;0.60;0.50;;;17.34;27.08;;;;;;2672634;76;22190;-89
2022/09/08 07:23:22;;;;;;;;;;;17.39;27.47;;;;;;2673068;76;22300;-90
2022/09/08 07:26:52;;;;;;;3.10;0.40;;;17.41;27.80;;;;;;2671922;76;21914;-90
2022/09/08 07:30:20;;;;;;;;;;;17.26;29.53;;;;;;2673194;76;22591;-90
2022/09/08 07:33:53;;;;;;;0.30;0.30;;;17.22;30.76;;;;;;2672428;76;21390;-90
2022/09/08 07:37:22;;;;;;;;;;;17.16;31.76;;;;;;2672650;76;22251;-91
2022/09/08 07:40:52;;;;;;;0.40;0.35;;;17.18;33.18;;;;;;2672136;76;21388;-90
2022/09/08 07:44:20;;;;;;;;;;;17.13;34.55;;;;;;2672917;76;22157;-90
2022/09/08 07:48:00;;;;;;;3.58;0.90;;;17.11;35.15;;;;;;2672313;76;20973;-90
2022/09/08 07:51:30;;;;;;;8.95;0.70;;;16.96;37.08;;;;;;2673424;76;22845;-91
2022/09/08 07:54:58;;;;;;;;;;;17.08;37.53;;;;;;2673628;76;22160;-90
2022/09/08 07:58:29;;;;;;;1.45;0.57;;;17.02;37.88;;;;;;2673207;76;21122;-91
2022/09/08 08:01:57;;;;;;;;;;;17.00;38.62;;;;;;2674529;76;22306;-92
2022/09/08 08:05:28;;;;;;;8.98;0.65;;;16.98;38.97;;;;;;2676788;76;21099;-92
2022/09/08 08:08:58;;;;;;;;;;;17.03;39.42;;;;;;2678440;76;22309;-92
2022/09/08 08:12:28;;;;;;;1.12;0.60;;;17.14;38.88;;;;;;2678118;76;21122;-93
2022/09/08 08:15:57;;;;;;;;;;;17.26;37.39;;;;;;2678223;76;22247;-92
2022/09/08 08:19:33;;;;;;;2.22;0.40;;;17.54;36.55;;;;;;2678171;76;21001;-92
2022/09/08 08:23:19;;;;;;;1.05;0.55;;;17.90;35.31;;;;;;2677981;76;22283;-92
2022/09/08 08:26:53;;;;;;;2.47;0.57;;;18.18;34.07;;;;;;2677217;76;22267;-91
2022/09/08 08:30:21;;;;;;;;;;;18.58;32.90;;;;;;2676960;76;22291;-91
2022/09/08 08:33:51;;;;;;;1.15;0.50;;;18.53;30.33;;;;;;2675769;76;21102;-92
2022/09/08 08:37:20;;;;;;;;;;;18.85;30.60;;;;;;2675853;76;22301;-91
2022/09/08 08:40:50;;;;;;;1.47;0.65;;;18.92;29.79;;;;;;2675005;76;21118;-91
2022/09/08 08:44:18;;;;;;;;;;;19.05;29.45;;;;;;2675500;76;22139;-91
2022/09/08 08:48:01;;;;;;;1.82;0.78;;;19.21;30.09;;;;;;2674755;76;21135;-92
2022/09/08 08:51:41;;;;;;;0.82;0.60;;;19.26;29.64;;;;;;2674929;76;22208;-91
2022/09/08 08:55:27;;;;;;;1.60;0.57;;;19.37;29.06;;;;;;2674611;76;22321;-91
2022/09/08 08:58:58;;;;;;;0.95;0.50;;;19.35;28.13;;;;;;2674789;76;22310;-90
2022/09/08 09:02:26;;;;;;;;;;;19.37;28.34;;;;;;2674947;76;22303;-91
2022/09/08 09:06:08;;;;;;;0.50;0.40;;;19.57;28.03;;;;;;2674383;76;20992;-91
2022/09/08 09:09:39;;;;;;;1.22;0.45;;;19.89;26.43;;;;;;2674300;76;22286;-90
2022/09/08 09:13:07;;;;;;;;;;;20.39;25.20;;;;;;2674787;76;22270;-91
2022/09/08 09:16:54;;;;;;;1.82;0.60;;;20.60;23.36;;;;;;2673547;76;21153;-92
2022/09/08 09:20:28;;;;;;;0.47;0.47;;;20.72;22.53;;;;;;2673827;76;22838;-92
2022/09/08 09:23:56;;;;;;;;;;;20.70;20.83;;;;;;2674187;76;22345;-92
2022/09/08 09:27:33;;;;;;;0.60;0.40;;;21.11;20.32;;;;;;2673717;76;21030;-92
2022/09/08 09:31:19;;;;;;;0.35;0.30;;;21.27;19.59;;;;;;2674223;76;22297;-92
2022/09/08 09:34:52;;;;;;;1.90;0.45;;;21.58;17.77;;;;;;2674258;76;22291;-92
2022/09/08 09:38:20;;;;;;;;;;;22.06;17.03;;;;;;2674222;76;22192;-93
2022/09/08 09:41:59;;;;;;;;;;;22.19;14.54;;;;;;2673657;76;20533;-92
2022/09/08 09:45:28;;;;;;;;;;;22.34;14.39;;;;;;2674166;76;20539;-92
2022/09/08 09:49:04;;;;;;;0.50;0.40;;;22.19;12.93;;;;;;2673978;76;21577;-92
2022/09/08 09:52:29;;;;;;;;;;;21.94;11.05;;;;;;2674029;76;22333;-92
2022/09/08 09:56:00;;;;;;;5.67;0.68;;;21.79;11.32;;;;;;2674225;76;20988;-92
2022/09/08 09:59:29;;;;;;;;;;;21.82;11.72;;;;;;2673197;76;22211;-91
2022/09/08 10:03:12;;;;;;;0.25;0.25;;;21.80;10.63;;;;;;2672131;76;21514;-92
2022/09/08 10:06:57;;;;;;;0.30;0.30;;;21.61;9.96;;;;;;2672434;76;22765;-92
2022/09/08 10:10:27;;;;;;;2.80;0.50;;;21.63;11.04;;;;;;2672722;76;22281;-90
2022/09/08 10:13:58;;;;;;;;;;;21.70;10.02;;;;;;2672438;76;22299;-92
2022/09/08 10:17:38;;;;;;;0.30;0.30;;;21.81;8.07;;;;;;2672519;76;21740;-92
2022/09/08 10:21:29;;;;;;;0.30;0.30;;;22.04;7.61;;;;;;2671708;76;22322;-91
2022/09/08 10:25:11;;;;;;;1.35;0.37;;;22.32;8.13;;;;;;2672123;76;22270;-91
2022/09/08 10:28:58;;;;;;;0.50;0.40;;;22.54;6.94;;;;;;2672005;76;22888;-92
2022/09/08 10:32:51;;;;;;;1.60;0.40;;;22.44;5.95;;;;;;2672238;76;22346;-92
2022/09/08 10:36:29;;;;;;;1.47;0.30;;;22.48;4.96;;;;;;2671722;76;22343;-90
2022/09/08 10:40:23;;;;;;;0.50;0.30;;;22.99;4.36;;;;;;2671344;76;22319;-90
2022/09/08 10:44:37;;;;;;;0.40;0.23;;;22.87;2.16;;;;;;2671143;76;22928;-90
2022/09/08 10:52:06;;;;;;;0.10;0.10;;;22.26;2.54;;;;;;2671890;76;22560;-87
2022/09/08 10:55:46;;;;;;;0.67;0.30;;;21.83;0.68;;;;;;2672133;76;22288;-88
2022/09/08 10:59:16;;;;;;;0.70;0.30;;;21.70;0.26;;;;;;2672341;76;22269;-87
2022/09/08 11:02:44;;;;;;;;;;;21.54;-0.35;;;;;;2672135;76;22530;-87
2022/09/08 11:06:18;;;;;;;0.33;0.30;;;21.44;-0.32;;;;;;2671998;76;21012;-87
2022/09/08 11:09:46;;;;;;;;;;;21.36;-0.03;;;;;;2672202;76;22683;-87
2022/09/08 11:13:22;;;;;;;0.20;0.20;;;21.31;-1.21;;;;;;2671602;76;21088;-87
2022/09/08 11:17:16;;;;;;;1.60;0.20;;;21.16;-2.09;;;;;;2672389;76;22673;-87
2022/09/08 11:20:46;;;;;;;0.30;0.15;;;21.19;-1.21;;;;;;2671525;76;22718;-87
2022/09/08 11:24:15;;;;;;;;;;;21.47;-0.86;;;;;;2672290;76;22318;-87
2022/09/08 11:27:51;;;;;;;1.25;0.47;;;21.84;-1.55;;;;;;2671225;76;21530;-87
2022/09/08 11:31:41;;;;;;;1.75;0.50;;;22.38;-2.51;;;;;;2671545;76;22325;-87
2022/09/08 11:35:17;;;;;;;1.15;0.25;;;22.92;-3.67;;;;;;2672105;76;22412;-86
2022/09/08 11:38:57;;;;;;;1.10;0.40;;;23.05;-4.57;;;;;;2672354;76;22199;-87
2022/09/08 11:42:34;;;;;;;0.43;0.40;;;23.02;-4.84;;;;;;2672125;76;22783;-87
2022/09/08 11:46:13;;;;;;;2.75;0.50;;;22.82;-5.28;;;;;;2671898;76;22208;-86
2022/09/08 11:53:54;;;;;;;0.35;0.35;;;23.13;-4.73;;;;;;2671852;76;22274;-87
2022/09/08 11:57:30;;;;;;;2.20;0.60;;;23.36;-5.27;;;;;;2672506;76;22243;-86
2022/09/08 12:01:16;;;;;;;3.20;0.25;;;23.32;118.58;;;;;;2672554;76;22347;-87
2022/09/08 12:04:59;;;;;;;2.52;0.40;;;23.60;118.69;;;;;;2672555;76;22330;-87
2022/09/08 12:08:45;;;;;;;0.93;0.40;;;23.56;118.05;;;;;;2672346;76;23285;-84
2022/09/08 12:12:19;;;;;;;0.72;0.20;;;23.50;118.50;;;;;;2672507;76;22860;-84
2022/09/08 12:15:47;;;;;;;;;;;23.62;117.93;;;;;;2672378;76;22291;-84
2022/09/08 12:19:23;;;;;;;0.88;0.30;;;24.26;117.99;;;;;;2672156;76;21015;-83
2022/09/08 12:22:54;;;;;;;0.75;0.40;;;24.55;118.66;;;;;;2672654;76;23370;-84
2022/09/08 12:26:22;;;;;;;;;;;24.42;118.50;;;;;;2672130;76;22303;-84
2022/09/08 12:29:58;;;;;;;0.78;0.45;;;25.04;118.94;;;;;;2671920;76;21177;-83
2022/09/08 12:33:32;;;;;;;0.40;0.40;;;25.19;118.66;;;;;;2671837;76;22281;-83
2022/09/08 12:37:00;;;;;;;;;;;25.06;-5.13;;;;;;2672026;76;22920;-82
2022/09/08 12:40:34;;;;;;;0.57;0.40;;;24.82;-4.39;;;;;;2672220;76;21270;-83
2022/09/08 12:44:02;;;;;;;;;;;24.59;-3.61;;;;;;2672577;76;22138;-83
2022/09/08 12:47:35;;;;;;;2.77;0.88;;;24.71;-4.26;;;;;;2671482;76;20987;-83
2022/09/08 12:51:04;;;;;;;;;;;25.04;-3.73;;;;;;2672402;76;22816;-83
2022/09/08 12:54:40;;;;;;;0.30;0.30;;;25.77;-4.54;;;;;;2671473;76;21113;-83
2022/09/08 12:58:10;;;;;;;0.80;0.35;;;26.02;-5.91;;;;;;2672139;76;22311;-83
2022/09/08 13:01:39;;;;;;;;;;;25.46;-4.97;;;;;;2672608;76;22177;-83
2022/09/08 13:05:09;;;;;;;0.40;0.40;;;24.86;-3.81;;;;;;2671492;76;20975;-83
2022/09/08 13:08:37;;;;;;;;;;;24.68;-3.06;;;;;;2672306;76;22162;-83
2022/09/08 13:12:23;;;;;;;1.05;0.70;;;24.39;-2.55;;;;;;2671908;76;21155;-83
2022/09/08 13:15:53;;;;;;;0.70;0.30;;;24.39;-2.19;;;;;;2672636;76;22322;-83
2022/09/08 13:19:21;;;;;;;;;;;24.77;-2.62;;;;;;2672593;76;22660;-83
2022/09/08 13:22:54;;;;;;;0.40;0.40;;;25.13;-3.42;;;;;;2671710;76;21473;-83
2022/09/08 13:26:23;;;;;;;;;;;25.52;-3.63;;;;;;2672289;76;22793;-83
2022/09/08 13:30:03;;;;;;;0.45;0.25;;;25.59;-5.48;;;;;;2671710;76;21262;-83
2022/09/08 13:33:42;;;;;;;0.37;0.20;;;25.00;117.95;;;;;;2672333;76;22839;-83
2022/09/08 13:37:21;;;;;;;0.40;0.23;;;24.50;113.13;;;;;;2672627;76;22180;-83
2022/09/08 13:41:10;;;;;;;2.15;0.40;;;24.43;111.69;;;;;;2676681;76;22257;-83
2022/09/08 13:44:47;;;;;;;1.72;0.35;;;24.47;111.94;;;;;;2673547;76;22310;-83
2022/09/08 13:48:36;;;;;;;0.90;0.40;;;24.84;112.91;;;;;;2672402;76;22286;-82
2022/09/08 13:52:23;;;;;;;0.90;0.42;;;24.36;112.45;;;;;;2671407;76;22305;-83
2022/09/08 13:56:01;;;;;;;2.12;0.50;;;24.05;113.19;;;;;;2671735;76;22584;-83
2022/09/08 13:59:48;;;;;;;0.95;0.40;;;23.64;114.06;;;;;;2671470;76;22152;-83
2022/09/08 14:03:18;;;;;;;1.02;0.30;;;23.52;114.50;;;;;;2671797;76;22320;-83
2022/09/08 14:06:46;;;;;;;;;;;23.49;114.49;;;;;;2672087;76;22306;-83
2022/09/08 14:10:20;;;;;;;0.95;0.65;;;23.96;113.37;;;;;;2673793;76;21421;-82
2022/09/08 14:13:48;;;;;;;;;;;24.01;114.04;;;;;;2673979;76;22240;-82
2022/09/08 14:17:21;;;;;;;2.80;0.55;;;23.57;112.34;;;;;;2674111;76;20966;-82
2022/09/08 14:20:49;;;;;;;;;;;23.52;112.52;;;;;;2673940;76;22868;-82
2022/09/08 14:24:39;;;;;;;1.55;0.45;;;23.47;111.64;;;;;;2671572;76;21121;-82
2022/09/08 14:28:19;;;;;;;2.15;0.45;;;23.76;111.15;;;;;;2671732;76;22732;-82
2022/09/08 14:32:01;;;;;;;0.33;0.30;;;23.97;109.84;;;;;;2672015;76;22300;-82
2022/09/08 14:35:42;;;;;;;2.55;0.25;;;24.17;109.39;;;;;;2671939;76;22267;-82
2022/09/08 14:39:16;;;;;;;0.40;0.40;;;24.02;108.30;;;;;;2672634;76;22273;-83
2022/09/08 14:42:44;;;;;;;;;;;24.04;107.72;;;;;;2672254;76;22264;-82
2022/09/08 14:46:23;;;;;;;0.90;0.37;;;23.86;108.82;;;;;;2671769;76;21142;-82
2022/09/08 14:50:03;;;;;;;1.35;0.50;;;23.55;111.91;;;;;;2672031;76;22307;-83
2022/09/08 14:53:41;;;;;;;0.50;0.30;;;23.73;114.41;;;;;;2672247;76;22138;-82
2022/09/08 14:57:15;;;;;;;1.50;0.50;;;26.77;113.96;;;;;;2672392;76;22707;-82
2022/09/08 15:00:46;;;;;;;;;;;31.12;105.12;;;;;;2672195;76;22279;-83
2022/09/08 15:04:13;;;;;;;;;;;33.45;94.94;;;;;;2672055;76;20414;-83
2022/09/08 15:07:48;;;;;;;0.53;0.40;;;27.88;101.99;;;;;;2671502;76;21114;-82
2022/09/08 15:11:17;;;;;;;;;;;26.46;105.85;;;;;;2672622;76;22895;-82
2022/09/08 15:14:46;;;;;;;;;;;26.60;108.58;;;;;;2672917;76;22549;-82
2022/09/08 15:18:22;;;;;;;0.82;0.45;;;32.29;98.24;;;;;;2672038;76;20975;-83
2022/09/08 15:21:49;;;;;;;;;;;34.24;90.14;;;;;;2672882;76;22202;-82
2022/09/08 15:25:17;;;;;;;;;;;35.38;87.68;;;;;;2672667;76;22289;-82
2022/09/08 15:29:05;;;;;;;0.80;0.50;;;34.34;89.92;;;;;;2671621;76;21591;-83
2022/09/08 15:32:54;;;;;;;0.40;0.40;;;31.00;90.91;;;;;;2672431;76;22419;-83
2022/09/08 15:36:24;;;;;;;0.42;0.30;;;27.27;99.22;;;;;;2672444;76;22291;-82
2022/09/08 15:39:52;;;;;;;;;;;27.57;102.51;;;;;;2672542;76;22275;-82
2022/09/08 15:43:35;;;;;;;0.45;0.45;;;34.45;87.82;;;;;;2671973;76;21710;-81
2022/09/08 15:47:09;;;;;;;1.33;0.57;;;37.25;80.92;;;;;;2671831;76;22306;-83
2022/09/08 15:50:38;;;;;;;;;;;38.66;76.57;;;;;;2672218;76;22407;-83
2022/09/08 15:54:06;;;;;;;;;;;39.95;73.93;;;;;;2672661;76;20765;-83
2022/09/08 15:57:53;;;;;;;1.15;0.55;;;39.96;70.45;;;;;;2671746;76;21124;-82
2022/09/08 16:01:24;;;;;;;1.22;0.50;;;39.50;68.40;;;;;;2672149;76;22318;-83
2022/09/08 16:04:52;;;;;;;;;;;39.25;66.14;;;;;;2672758;76;22318;-83
2022/09/08 16:08:35;;;;;;;0.50;0.50;;;38.96;64.53;;;;;;2672084;76;21001;-83
2022/09/08 16:12:08;;;;;;;0.50;0.35;;;39.22;63.34;;;;;;2672186;76;22870;-83
2022/09/08 16:15:40;;;;;;;;;;;38.21;62.02;;;;;;2672604;76;22729;-83
2022/09/08 16:19:07;;;;;;;1.37;0.20;;;38.34;61.67;;;;;;2671620;76;21417;-83
2022/09/08 16:22:36;;;;;;;;;;;38.21;61.54;;;;;;2672464;76;22855;-83
2022/09/08 16:26:24;;;;;;;1.42;0.72;;;37.69;61.60;;;;;;2672064;76;21098;-82
2022/09/08 16:30:01;;;;;;;0.60;0.47;;;37.27;61.86;;;;;;2672391;76;22255;-83
2022/09/08 16:33:29;;;;;;;;;;;37.71;62.38;;;;;;2672912;76;22253;-85
2022/09/08 16:36:58;;;;;;;;;;;36.70;62.31;;;;;;2672799;76;20329;-85
2022/09/08 16:40:27;;;;;;;1.55;0.30;;;36.96;62.23;;;;;;2671942;76;21033;-85
2022/09/08 16:43:55;;;;;;;;;;;36.74;62.76;;;;;;2672551;76;22273;-85
2022/09/08 16:47:26;;;;;;;1.95;0.50;;;36.57;63.31;;;;;;2671246;76;21445;-85
2022/09/08 16:50:54;;;;;;;;;;;36.30;63.92;;;;;;2672822;76;22364;-90
2022/09/08 16:54:30;;;;;;;1.22;0.40;;;35.53;65.07;;;;;;2672081;76;21014;-90
2022/09/08 16:58:07;;;;;;;1.40;0.70;;;34.76;66.50;;;;;;2673266;76;22570;-90
2022/09/08 17:01:37;;;;;;;1.40;0.20;;;33.42;67.76;;;;;;2672502;76;22355;-88
2022/09/08 17:05:06;;;;;;;;;;;32.01;69.55;;;;;;2673165;76;22355;-90
2022/09/08 17:08:37;;;;;;;1.85;0.50;;;30.62;73.12;;;;;;2672390;76;21165;-90
2022/09/08 17:12:07;;;;;;;;;;;29.91;73.77;;;;;;2672989;76;22864;-89
2022/09/08 17:15:43;;;;;;;1.22;0.40;;;25.83;80.94;;;;;;2671710;76;21133;-89
2022/09/08 17:19:14;;;;;;;0.65;0.45;;;24.02;86.52;;;;;;2673150;76;22314;-90
2022/09/08 17:22:43;;;;;;;;;;;23.10;89.78;;;;;;2672593;76;22317;-90
2022/09/08 17:26:20;;;;;;;0.40;0.28;;;22.48;91.76;;;;;;2672159;76;21029;-89
2022/09/08 17:29:55;;;;;;;0.95;0.50;;;21.92;93.95;;;;;;2672695;76;22332;-89
2022/09/08 17:33:23;;;;;;;;;;;21.44;95.66;;;;;;2672689;76;22780;-89
2022/09/08 17:36:51;;;;;;;;;;;21.03;96.90;;;;;;2673335;76;21137;-88
2022/09/08 17:40:24;;;;;;;1.67;0.40;;;20.65;98.53;;;;;;2673041;76;21119;-89
2022/09/08 17:43:52;;;;;;;;;;;20.32;100.08;;;;;;2673092;76;22653;-87
2022/09/08 17:47:29;;;;;;;1.72;0.50;;;20.00;101.60;;;;;;2672245;76;21134;-89
2022/09/08 17:51:12;;;;;;;4.20;0.40;;;19.72;103.12;;;;;;2672906;76;22289;-89
2022/09/08 17:54:43;;;;;;;1.15;0.55;;;19.43;104.51;;;;;;2672575;76;22199;-89
2022/09/08 17:58:12;;;;;;;;;;;19.23;105.82;;;;;;2673305;76;22283;-89
2022/09/08 18:01:43;;;;;;;1.17;0.47;;;19.03;107.25;;;;;;2672078;76;21138;-89
2022/09/08 18:05:11;;;;;;;;;;;18.86;108.27;;;;;;2673337;76;22238;-89
2022/09/08 18:08:40;;;;;;;6.60;0.60;;;18.68;109.09;;;;;;2672285;76;21057;-89
2022/09/08 18:12:10;;;;;;;;;;;18.54;110.15;;;;;;2672812;76;22386;-88
2022/09/08 18:15:40;;;;;;;1.40;0.40;;;18.42;111.16;;;;;;2671701;76;21114;-89
2022/09/08 18:19:09;;;;;;;;;;;18.30;112.03;;;;;;2672921;76;22304;-89
2022/09/08 18:22:51;;;;;;;1.72;0.40;;;18.20;112.66;;;;;;2672264;76;21126;-89
2022/09/08 18:26:25;;;;;;;1.50;0.30;;;18.08;113.29;;;;;;2672453;76;22344;-89
2022/09/08 18:29:53;;;;;;;;;;;18.00;113.69;;;;;;2672651;76;22314;-89
2022/09/08 18:33:24;;;;;;;0.57;0.30;;;17.93;114.32;;;;;;2671489;76;21127;-89
2022/09/08 18:36:52;;;;;;;;;;;17.83;114.90;;;;;;2672914;76;22304;-89
2022/09/08 18:40:27;;;;;;;2.42;0.70;;;17.74;115.52;;;;;;2672313;76;20990;-88
2022/09/08 18:43:53;;;;;;;;;;;17.64;116.34;;;;;;2672709;76;22333;-89
2022/09/08 18:47:23;;;;;;;3.83;0.50;;;17.54;117.07;;;;;;2672075;76;21102;-89
2022/09/08 18:50:52;;;;;;;;;;;17.46;117.72;;;;;;2676922;76;22181;-89
2022/09/08 18:58:04;;;;;;;3.30;0.60;;;17.26;118.13;;;;;;2672948;76;22231;-89
2022/09/08 19:01:33;;;;;;;;;;;17.19;118.54;;;;;;2672761;76;22309;-89
2022/09/08 19:05:09;;;;;;;3.27;0.78;;;17.15;-5.86;;;;;;2672463;76;21442;-89
2022/09/08 19:08:45;;;;;;;1.80;0.70;;;17.03;-5.27;;;;;;2672573;76;22210;-88
2022/09/08 19:16:02;;;;;;;2.12;0.70;;;16.81;-4.32;;;;;;2673021;76;22263;-89
2022/09/08 19:19:30;;;;;;;;;;;16.74;-4.03;;;;;;2673339;76;23088;-88
2022/09/08 19:23:02;;;;;;;2.35;0.82;;;16.69;-3.59;;;;;;2671942;76;21112;-89
2022/09/08 19:26:31;;;;;;;;;;;16.64;-3.10;;;;;;2672840;76;22315;-89
2022/09/08 19:30:03;;;;;;;3.15;0.62;;;16.61;-2.73;;;;;;2671766;76;21092;-89